createdAt,value
2023-01-11T00:01:22.741Z,4.43
2023-01-11T00:03:51.316Z,9.02
2023-01-11T00:06:20.146Z,6.20
2023-01-11T00:08:48.646Z,4.22
2023-01-11T00:11:19.191Z,4.90
2023-01-11T00:13:47.655Z,6.57
2023-01-11T00:16:16.330Z,6.32
2023-01-11T00:18:44.912Z,8.45
2023-01-11T00:21:14.223Z,11.07
2023-01-11T00:23:42.805Z,7.07
2023-01-11T00:26:14.027Z,7.63
2023-01-11T00:28:44.762Z,7.47
2023-01-11T00:31:13.355Z,7.13
2023-01-11T00:33:41.868Z,7.47
2023-01-11T00:36:10.872Z,4.00
2023-01-11T00:38:47.071Z,5.60
2023-01-11T00:41:34.508Z,6.20
2023-01-11T00:44:22.115Z,6.72
2023-01-11T00:47:08.068Z,7.88
2023-01-11T00:49:37.517Z,6.72
2023-01-11T00:52:09.283Z,5.22
2023-01-11T00:54:38.760Z,8.00
2023-01-11T00:57:07.776Z,6.05
2023-01-11T00:59:39.648Z,9.98
2023-01-11T01:02:08.790Z,15.93
2023-01-11T01:04:37.603Z,14.80
2023-01-11T01:07:06.950Z,24.60
2023-01-11T01:09:35.556Z,29.10
2023-01-11T01:12:05.188Z,27.33
2023-01-11T01:14:34.359Z,22.80
2023-01-11T01:17:08.067Z,20.65
2023-01-11T01:19:38.490Z,23.95
2023-01-11T01:22:07.495Z,19.92
2023-01-11T01:24:36.037Z,19.58
2023-01-11T01:27:04.561Z,17.48
2023-01-11T01:29:34.048Z,16.33
2023-01-11T01:32:04.089Z,16.50
2023-01-11T01:34:32.638Z,13.88
2023-01-11T01:37:01.232Z,13.32
2023-01-11T01:39:29.982Z,14.93
2023-01-11T01:41:58.479Z,9.77
2023-01-11T01:44:56.366Z,14.38
2023-01-11T01:47:32.417Z,12.63
2023-01-11T01:50:06.088Z,11.82
2023-01-11T01:52:36.570Z,9.52
2023-01-11T01:55:08.689Z,3.70
2023-01-11T01:57:40.369Z,10.80
2023-01-11T02:00:10.703Z,3.63
2023-01-11T02:02:42.373Z,10.02
2023-01-11T02:05:12.482Z,8.38
2023-01-11T02:07:43.492Z,10.35
2023-01-11T02:10:16.449Z,8.45
2023-01-11T02:12:50.894Z,9.13
2023-01-11T02:15:22.303Z,11.98
2023-01-11T02:17:55.568Z,9.82
2023-01-11T02:20:55.575Z,8.00
2023-01-11T02:23:58.098Z,7.15
2023-01-11T02:26:55.667Z,7.55
2023-01-11T02:29:38.505Z,8.25
2023-01-11T02:32:22.757Z,6.22
2023-01-11T02:35:01.735Z,8.77
2023-01-11T02:37:43.522Z,10.15
2023-01-11T02:40:22.885Z,7.72
2023-01-11T02:43:11.886Z,8.77
2023-01-11T02:45:51.621Z,8.73
2023-01-11T02:48:28.685Z,7.05
2023-01-11T02:51:03.849Z,10.45
2023-01-11T02:53:38.907Z,7.78
2023-01-11T02:56:12.327Z,6.97
2023-01-11T02:58:45.803Z,9.63
2023-01-11T03:01:16.901Z,9.75
2023-01-11T03:03:45.501Z,7.65
2023-01-11T03:06:18.612Z,7.78
2023-01-11T03:09:12.553Z,9.73
2023-01-11T03:12:12.545Z,7.63
2023-01-11T03:17:38.758Z,6.25
2023-01-11T03:20:15.437Z,9.80
2023-01-11T03:22:54.333Z,9.90
2023-01-11T03:25:29.863Z,9.73
2023-01-11T03:28:07.855Z,8.23
2023-01-11T03:30:41.895Z,8.07
2023-01-11T03:33:18.494Z,8.13
2023-01-11T03:35:51.262Z,6.78
2023-01-11T03:38:25.111Z,6.30
2023-01-11T03:40:57.831Z,7.90
2023-01-11T03:43:28.356Z,10.02
2023-01-11T03:45:59.745Z,6.57
2023-01-11T03:48:36.026Z,8.38
2023-01-11T03:51:10.365Z,6.57
2023-01-11T03:56:12.962Z,7.32
2023-01-11T03:58:41.617Z,5.28
2023-01-11T04:01:13.726Z,8.32
2023-01-11T04:03:43.658Z,7.78
2023-01-11T04:06:13.525Z,7.97
2023-01-11T04:08:42.076Z,9.57
2023-01-11T04:11:10.776Z,8.73
2023-01-11T04:13:39.281Z,13.27
2023-01-11T04:16:11.094Z,12.10
2023-01-11T04:18:39.621Z,11.52
2023-01-11T04:21:09.494Z,9.02
2023-01-11T04:23:38.258Z,6.32
2023-01-11T04:26:09.434Z,7.30
2023-01-11T04:28:37.924Z,8.80
2023-01-11T04:31:06.634Z,8.48
2023-01-11T04:33:35.354Z,7.95
2023-01-11T04:36:06.361Z,5.43
2023-01-11T04:38:36.738Z,7.78
2023-01-11T04:41:23.825Z,6.70
2023-01-11T04:46:23.634Z,9.15
2023-01-11T04:48:52.955Z,6.05
2023-01-11T04:51:22.913Z,11.18
2023-01-11T04:53:54.903Z,8.75
2023-01-11T04:56:23.665Z,8.30
2023-01-11T04:58:52.400Z,8.55
2023-01-11T05:01:21.233Z,8.50
2023-01-11T05:03:50.003Z,8.40
2023-01-11T05:06:19.830Z,9.10
2023-01-11T05:08:48.976Z,7.63
2023-01-11T05:11:19.529Z,7.32
2023-01-11T05:13:48.338Z,6.45
2023-01-11T05:16:18.980Z,6.75
2023-01-11T05:18:49.966Z,7.18
2023-01-11T05:21:21.023Z,8.02
2023-01-11T05:23:50.078Z,7.45
2023-01-11T05:26:23.344Z,8.57
2023-01-11T05:28:53.052Z,10.93
2023-01-11T05:31:21.609Z,6.35
2023-01-11T05:33:50.383Z,7.75
2023-01-11T05:36:21.435Z,8.35
2023-01-11T05:38:52.991Z,8.52
2023-01-11T05:41:24.155Z,10.80
2023-01-11T05:44:10.597Z,7.07
2023-01-11T05:46:40.898Z,8.80
2023-01-11T05:49:10.753Z,4.65
2023-01-11T05:51:39.719Z,8.75
2023-01-11T05:54:11.354Z,7.47
2023-01-11T05:56:42.609Z,7.78
2023-01-11T05:59:11.753Z,8.73
2023-01-11T06:01:40.635Z,7.82
2023-01-11T06:04:09.411Z,9.40
2023-01-11T06:06:38.364Z,12.25
2023-01-11T06:09:07.113Z,9.05
2023-01-11T06:11:35.884Z,10.77
2023-01-11T06:14:05.809Z,12.43
2023-01-11T06:16:34.459Z,5.55
2023-01-11T06:19:02.990Z,8.23
2023-01-11T06:21:31.652Z,9.82
2023-01-11T06:24:00.228Z,6.70
2023-01-11T06:26:58.568Z,9.82
2023-01-11T06:29:27.234Z,6.63
2023-01-11T06:31:55.742Z,10.93
2023-01-11T06:34:24.501Z,11.82
2023-01-11T06:36:52.970Z,6.47
2023-01-11T06:39:21.462Z,6.53
2023-01-11T06:41:50.120Z,10.88
2023-01-11T06:44:21.061Z,6.28
2023-01-11T06:46:50.600Z,11.45
2023-01-11T06:49:19.266Z,8.57
2023-01-11T06:51:48.004Z,9.07
2023-01-11T06:54:22.007Z,8.75
2023-01-11T06:56:50.772Z,7.82
2023-01-11T06:59:20.633Z,9.75
2023-01-11T07:01:49.127Z,6.28
2023-01-11T07:04:18.844Z,4.72
2023-01-11T07:06:47.484Z,7.65
2023-01-11T07:09:16.896Z,7.07
2023-01-11T07:11:45.744Z,9.73
2023-01-11T07:14:19.935Z,11.27
2023-01-11T07:19:19.739Z,10.98
2023-01-11T07:21:48.301Z,9.23
2023-01-11T07:24:16.709Z,13.07
2023-01-11T07:26:45.424Z,9.48
2023-01-11T07:29:13.888Z,8.35
2023-01-11T07:31:42.370Z,9.60
2023-01-11T07:34:13.026Z,8.10
2023-01-11T07:36:41.818Z,11.38
2023-01-11T07:39:10.424Z,9.45
2023-01-11T07:41:56.244Z,4.95
2023-01-11T07:44:24.778Z,8.65
2023-01-11T07:46:54.896Z,8.25
2023-01-11T07:49:24.952Z,10.68
2023-01-11T07:51:53.399Z,6.97
2023-01-11T07:54:22.951Z,9.45
2023-01-11T07:56:51.548Z,9.32
2023-01-11T07:59:20.119Z,10.57
2023-01-11T08:01:48.548Z,13.88
2023-01-11T08:04:17.343Z,9.43
2023-01-11T08:06:47.367Z,9.90
2023-01-11T08:09:15.837Z,7.97
2023-01-11T08:12:01.488Z,12.75
2023-01-11T08:14:42.477Z,7.25
2023-01-11T08:17:13.705Z,9.68
2023-01-11T08:19:42.962Z,8.25
2023-01-11T08:22:13.426Z,6.57
2023-01-11T08:24:41.976Z,6.47
2023-01-11T08:27:10.774Z,5.45
2023-01-11T08:29:39.950Z,8.32
2023-01-11T08:32:09.483Z,7.20
2023-01-11T08:34:38.441Z,7.60
2023-01-11T08:37:07.207Z,10.30
2023-01-11T08:39:37.487Z,8.82
2023-01-11T08:42:06.143Z,10.18
2023-01-11T08:44:35.190Z,6.32
2023-01-11T08:47:04.196Z,7.18
2023-01-11T08:49:35.791Z,9.98
2023-01-11T08:52:04.481Z,5.57
2023-01-11T08:54:33.049Z,7.30
2023-01-11T08:57:04.221Z,5.90
2023-01-11T08:59:32.999Z,8.13
2023-01-11T09:02:02.621Z,4.78
2023-01-11T09:04:31.287Z,6.78
2023-01-11T09:06:59.829Z,6.85
2023-01-11T09:09:28.389Z,5.97
2023-01-11T09:11:58.971Z,7.15
2023-01-11T09:14:29.936Z,4.80
2023-01-11T09:16:58.650Z,6.70
2023-01-11T09:19:27.294Z,8.68
2023-01-11T09:21:59.709Z,6.30
2023-01-11T09:24:28.245Z,6.85
2023-01-11T09:26:59.231Z,7.25
2023-01-11T09:29:29.423Z,5.82
2023-01-11T09:31:58.243Z,9.18
2023-01-11T09:34:27.588Z,5.80
2023-01-11T09:36:57.711Z,7.45
2023-01-11T09:39:27.839Z,4.80
2023-01-11T09:42:29.646Z,6.13
2023-01-11T09:45:07.283Z,14.30
2023-01-11T09:47:42.107Z,6.18
2023-01-11T09:50:18.772Z,8.25
2023-01-11T09:52:52.785Z,5.78
2023-01-11T09:55:28.776Z,4.45
2023-01-11T09:58:32.623Z,7.00
2023-01-11T10:01:12.585Z,7.72
2023-01-11T10:04:06.270Z,5.07
2023-01-11T10:06:43.446Z,6.13
2023-01-11T10:18:23.463Z,7.93
2023-01-11T10:18:53.518Z,11.43
2023-01-11T10:21:30.063Z,10.40
2023-01-11T10:24:04.341Z,6.00
2023-01-11T10:26:40.092Z,6.68
2023-01-11T10:29:40.387Z,6.40
2023-01-11T10:32:41.553Z,6.63
2023-01-11T10:35:33.708Z,7.15
2023-01-11T10:38:30.904Z,6.18
2023-01-11T10:41:12.173Z,8.13
2023-01-11T10:43:44.960Z,6.88
2023-01-11T10:46:16.934Z,8.63
2023-01-11T10:48:46.381Z,9.27
2023-01-11T10:51:27.504Z,11.73
2023-01-11T10:54:12.555Z,7.70
2023-01-11T10:57:04.717Z,6.55
2023-01-11T10:59:55.787Z,7.43
2023-01-11T11:02:41.822Z,6.90
2023-01-11T11:05:24.736Z,7.20
2023-01-11T11:07:59.664Z,6.95
2023-01-11T11:10:34.125Z,7.57
2023-01-11T11:13:13.849Z,9.98
2023-01-11T11:15:50.786Z,7.63
2023-01-11T11:18:19.515Z,10.35
2023-01-11T11:20:48.454Z,7.40
2023-01-11T11:23:22.070Z,6.05
2023-01-11T11:25:56.588Z,7.78
2023-01-11T11:28:31.117Z,8.45
2023-01-11T11:31:03.188Z,8.30
2023-01-11T11:33:36.232Z,6.10
2023-01-11T11:36:07.530Z,11.25
2023-01-11T11:38:39.548Z,9.00
2023-01-11T11:41:10.575Z,7.75
2023-01-11T11:43:40.329Z,9.73
2023-01-11T11:46:26.488Z,5.72
2023-01-11T11:49:13.350Z,5.18
2023-01-11T11:51:43.429Z,5.93
2023-01-11T11:54:22.510Z,6.38
2023-01-11T11:56:51.563Z,8.05
2023-01-11T11:59:22.098Z,12.32
2023-01-11T12:01:59.277Z,6.45
2023-01-11T12:04:39.419Z,7.68
2023-01-11T12:07:14.966Z,5.15
2023-01-11T12:09:48.639Z,8.18
2023-01-11T12:12:25.597Z,7.00
2023-01-11T12:15:19.661Z,6.97
2023-01-11T12:17:48.738Z,7.25
2023-01-11T12:20:44.776Z,9.30
2023-01-11T12:23:24.293Z,10.60
2023-01-11T12:26:14.263Z,8.75
2023-01-11T12:29:24.364Z,5.65
2023-01-11T12:32:40.383Z,9.07
2023-01-11T12:35:37.114Z,8.25
2023-01-11T12:38:29.639Z,5.88
2023-01-11T12:41:16.870Z,6.65
2023-01-11T12:43:59.279Z,6.28
2023-01-11T12:46:41.529Z,6.20
2023-01-11T12:49:28.224Z,6.38
2023-01-11T12:52:16.263Z,7.47
2023-01-11T12:55:01.897Z,6.30
2023-01-11T12:57:39.723Z,6.60
2023-01-11T13:00:27.783Z,7.47
2023-01-11T13:03:10.470Z,6.03
2023-01-11T13:05:52.767Z,10.55
2023-01-11T13:08:30.931Z,4.47
2023-01-11T13:11:05.769Z,5.85
2023-01-11T13:13:46.820Z,7.65
2023-01-11T13:16:22.247Z,8.25
2023-01-11T13:18:59.289Z,8.70
2023-01-11T13:21:34.435Z,6.43
2023-01-11T13:24:08.616Z,7.70
2023-01-11T13:26:41.587Z,6.88
2023-01-11T13:29:17.268Z,6.88
2023-01-11T13:31:48.445Z,6.47
2023-01-11T13:34:25.148Z,7.32
2023-01-11T13:37:00.821Z,4.88
2023-01-11T13:39:38.931Z,6.90
2023-01-11T13:42:17.115Z,6.90
2023-01-11T13:44:53.227Z,7.50
2023-01-11T13:47:27.364Z,5.07
2023-01-11T13:52:44.011Z,6.35
2023-01-11T13:55:25.044Z,7.65
2023-01-11T13:57:59.140Z,7.30
2023-01-11T14:00:34.432Z,8.02
2023-01-11T14:03:12.517Z,10.23
2023-01-11T14:05:50.099Z,10.65
2023-01-11T14:08:42.715Z,5.50
2023-01-11T14:11:23.318Z,5.15
2023-01-11T14:14:15.669Z,5.85
2023-01-11T14:17:03.284Z,8.07
2023-01-11T14:19:38.939Z,8.20
2023-01-11T14:22:15.741Z,7.82
2023-01-11T14:24:54.334Z,20.63
2023-01-11T14:27:49.294Z,8.65
2023-01-11T14:30:32.254Z,8.32
2023-01-11T14:33:26.785Z,6.00
2023-01-11T14:36:31.541Z,6.35
2023-01-11T14:39:21.525Z,8.18
2023-01-11T14:42:31.108Z,7.10
2023-01-11T14:45:17.186Z,6.40
2023-01-11T14:48:14.178Z,6.25
2023-01-11T14:51:02.026Z,4.78
2023-01-11T14:53:39.162Z,5.22
2023-01-11T14:56:46.936Z,4.63
2023-01-11T14:59:25.983Z,6.82
2023-01-11T15:02:17.362Z,5.53
2023-01-11T15:05:07.032Z,8.70
2023-01-11T15:07:40.209Z,9.90
2023-01-11T15:10:39.160Z,6.57
2023-01-11T15:13:13.300Z,7.30
2023-01-11T15:16:00.826Z,7.28
2023-01-11T15:18:29.847Z,8.48
2023-01-11T15:21:04.311Z,8.18
2023-01-11T15:23:37.754Z,5.60
2023-01-11T15:26:09.581Z,5.78
2023-01-11T15:28:49.033Z,6.57
2023-01-11T15:31:39.089Z,7.72
2023-01-11T15:34:26.200Z,5.18
2023-01-11T15:37:10.094Z,7.68
2023-01-11T15:39:46.785Z,6.80
2023-01-11T15:42:40.025Z,5.65
2023-01-11T15:46:07.015Z,5.72
2023-01-11T15:48:51.109Z,8.10
2023-01-11T15:51:37.535Z,5.13
2023-01-11T15:54:32.910Z,6.63
2023-01-11T15:57:28.013Z,6.93
2023-01-11T16:00:35.559Z,6.00
2023-01-11T16:03:31.678Z,5.80
2023-01-11T16:06:11.432Z,6.63
2023-01-11T16:08:47.378Z,8.60
2023-01-11T16:11:23.457Z,16.42
2023-01-11T16:14:06.056Z,9.43
2023-01-11T16:16:40.135Z,4.57
2023-01-11T16:19:17.346Z,5.60
2023-01-11T16:21:49.489Z,7.00
2023-01-11T16:24:21.045Z,7.95
2023-01-11T16:26:53.858Z,5.85
2023-01-11T16:29:26.847Z,4.68
2023-01-11T16:31:58.514Z,5.65
2023-01-11T16:34:29.117Z,10.73
2023-01-11T16:36:59.377Z,5.43
2023-01-11T16:39:31.685Z,7.53
2023-01-11T16:42:03.976Z,6.65
2023-01-11T16:44:42.010Z,5.35
2023-01-11T16:47:13.476Z,5.70
2023-01-11T16:49:43.919Z,7.82
2023-01-11T16:52:37.105Z,10.77
2023-01-11T16:57:45.804Z,5.63
2023-01-11T17:00:29.020Z,8.45
2023-01-11T17:03:07.338Z,9.63
2023-01-11T17:05:36.558Z,5.38
2023-01-11T17:08:25.996Z,5.18
2023-01-11T17:10:58.392Z,6.75
2023-01-11T17:13:55.106Z,7.60
2023-01-11T17:16:29.098Z,7.80
2023-01-11T17:19:10.530Z,7.63
2023-01-11T17:21:39.538Z,10.52
2023-01-11T17:24:08.517Z,6.80
2023-01-11T17:26:49.674Z,5.88
2023-01-11T17:29:24.840Z,5.32
2023-01-11T17:31:56.394Z,5.93
2023-01-11T17:34:29.380Z,12.25
2023-01-11T17:36:59.433Z,6.25
2023-01-11T17:39:31.996Z,5.78
2023-01-11T17:42:27.101Z,4.40
2023-01-11T17:45:17.754Z,5.43
2023-01-11T17:47:51.033Z,4.53
2023-01-11T17:50:26.949Z,5.10
2023-01-11T17:53:07.243Z,5.13
2023-01-11T17:55:36.301Z,5.88
2023-01-11T17:58:19.275Z,5.60
2023-01-11T18:01:13.418Z,7.35
2023-01-11T18:03:46.691Z,4.13
2023-01-11T18:06:29.233Z,8.02
2023-01-11T18:09:00.202Z,6.03
2023-01-11T18:11:30.724Z,3.90
2023-01-11T18:14:02.092Z,4.63
2023-01-11T18:16:31.470Z,7.15
2023-01-11T18:19:01.624Z,5.72
2023-01-11T18:21:52.251Z,5.38
2023-01-11T18:24:29.749Z,5.63
2023-01-11T18:27:31.695Z,9.05
2023-01-11T18:30:02.808Z,6.72
2023-01-11T18:32:39.220Z,3.78
2023-01-11T18:35:18.502Z,8.07
2023-01-11T18:37:47.876Z,7.57
2023-01-11T18:40:18.525Z,5.45
2023-01-11T18:42:51.237Z,4.30
2023-01-11T18:45:20.422Z,6.00
2023-01-11T18:47:49.292Z,10.85
2023-01-11T18:50:19.805Z,6.65
2023-01-11T18:52:49.489Z,5.05
2023-01-11T18:55:19.032Z,6.97
2023-01-11T18:57:48.525Z,5.80
2023-01-11T19:00:18.835Z,6.15
2023-01-11T19:02:47.690Z,10.27
2023-01-11T19:05:20.021Z,7.63
2023-01-11T19:07:49.424Z,5.93
2023-01-11T19:10:20.711Z,7.40
2023-01-11T19:12:49.773Z,6.63
2023-01-11T19:15:18.481Z,7.97
2023-01-11T19:17:48.328Z,11.40
2023-01-11T19:20:19.369Z,6.55
2023-01-11T19:22:48.335Z,7.13
2023-01-11T19:25:17.368Z,7.43
2023-01-11T19:27:46.284Z,8.07
2023-01-11T19:30:15.507Z,5.55
2023-01-11T19:32:44.001Z,5.57
2023-01-11T19:35:12.515Z,6.85
2023-01-11T19:37:42.830Z,6.03
2023-01-11T19:40:12.644Z,5.90
2023-01-11T19:42:41.355Z,5.63
2023-01-11T19:45:10.778Z,8.57
2023-01-11T19:47:40.159Z,7.57
2023-01-11T19:50:09.858Z,8.52
2023-01-11T19:52:38.749Z,7.28
2023-01-11T19:55:09.969Z,5.40
2023-01-11T19:57:38.464Z,6.47
2023-01-11T20:00:08.194Z,8.70
2023-01-11T20:02:42.935Z,7.53
2023-01-11T20:05:11.636Z,7.10
2023-01-11T20:07:40.261Z,4.10
2023-01-11T20:10:11.802Z,6.90
2023-01-11T20:12:42.022Z,8.40
2023-01-11T20:15:11.639Z,8.93
2023-01-11T20:17:40.386Z,9.18
2023-01-11T20:20:10.407Z,6.25
2023-01-11T20:22:38.834Z,7.45
2023-01-11T20:25:12.423Z,5.93
2023-01-11T20:27:41.949Z,6.43
2023-01-11T20:30:11.892Z,7.47
2023-01-11T20:32:42.400Z,8.38
2023-01-11T20:35:11.812Z,8.05
2023-01-11T20:37:40.374Z,7.95
2023-01-11T20:40:14.224Z,7.88
2023-01-11T20:45:12.432Z,6.60
2023-01-11T20:47:40.933Z,7.57
2023-01-11T20:50:10.580Z,8.07
2023-01-11T20:52:39.210Z,7.47
2023-01-11T20:55:10.580Z,7.22
2023-01-11T20:57:39.444Z,7.53
2023-01-11T21:02:38.434Z,5.57
2023-01-11T21:05:07.774Z,7.57
2023-01-11T21:07:36.330Z,5.82
2023-01-11T21:10:05.057Z,9.55
2023-01-11T21:12:35.119Z,5.63
2023-01-11T21:15:03.895Z,6.55
2023-01-11T21:17:32.696Z,7.28
2023-01-11T21:20:01.132Z,7.72
2023-01-11T21:22:29.825Z,7.57
2023-01-11T21:24:58.322Z,6.53
2023-01-11T21:27:27.067Z,5.60
2023-01-11T21:29:57.128Z,5.32
2023-01-11T21:32:25.929Z,5.28
2023-01-11T21:34:54.504Z,7.38
2023-01-11T21:37:24.744Z,6.68
2023-01-11T21:39:53.430Z,6.03
2023-01-11T21:42:21.877Z,5.93
2023-01-11T21:44:50.444Z,9.80
2023-01-11T21:47:20.477Z,10.15
2023-01-11T21:49:48.992Z,6.50
2023-01-11T21:52:17.476Z,5.68
2023-01-11T21:54:46.069Z,5.47
2023-01-11T21:57:14.644Z,6.22
2023-01-11T21:59:43.127Z,5.72
2023-01-11T22:02:12.113Z,7.47
2023-01-11T22:04:42.097Z,5.63
2023-01-11T22:07:10.606Z,5.32
2023-01-11T22:09:44.770Z,6.68
2023-01-11T22:12:18.305Z,5.18
2023-01-11T22:14:46.815Z,5.78
2023-01-11T22:17:15.277Z,6.20
2023-01-11T22:19:45.196Z,7.97
2023-01-11T22:22:13.632Z,6.18
2023-01-11T22:24:42.114Z,8.60
2023-01-11T22:27:10.758Z,6.57
2023-01-11T22:29:39.528Z,7.65
2023-01-11T22:32:08.140Z,6.72
2023-01-11T22:34:39.254Z,5.88
2023-01-11T22:37:09.240Z,5.00
2023-01-11T22:39:38.543Z,4.00
2023-01-11T22:42:07.503Z,5.25
2023-01-11T22:44:36.147Z,6.70
2023-01-11T22:47:04.933Z,4.80
2023-01-11T22:49:33.662Z,6.55
2023-01-11T22:52:02.567Z,6.68
2023-01-11T22:54:33.089Z,8.77
2023-01-11T22:57:01.618Z,7.25
2023-01-11T22:59:30.383Z,7.05
2023-01-11T23:01:58.868Z,6.32
2023-01-11T23:04:27.343Z,4.55
2023-01-11T23:06:57.270Z,4.65
2023-01-11T23:09:25.872Z,6.25
2023-01-11T23:12:12.990Z,5.45
2023-01-11T23:14:53.341Z,6.78
2023-01-11T23:17:24.518Z,5.95
2023-01-11T23:19:53.538Z,4.85
2023-01-11T23:22:22.227Z,6.57
2023-01-11T23:24:50.703Z,6.93
2023-01-11T23:27:20.657Z,8.40
2023-01-11T23:29:49.324Z,5.53
2023-01-11T23:32:17.935Z,5.78
2023-01-11T23:34:46.390Z,5.15
2023-01-11T23:37:14.999Z,5.78
2023-01-11T23:39:43.588Z,7.93
2023-01-11T23:42:26.813Z,5.72
2023-01-11T23:44:57.763Z,5.22
2023-01-11T23:47:29.549Z,5.18
2023-01-11T23:50:00.475Z,6.43
2023-01-11T23:52:31.199Z,15.07
2023-01-11T23:54:59.798Z,8.32
2023-01-11T23:57:28.685Z,5.72
2023-01-11T23:59:58.695Z,4.55
